createdAt,value
2023-01-17T00:02:05.786Z,14.95
2023-01-17T00:04:52.415Z,15.70
2023-01-17T00:07:39.151Z,16.02
2023-01-17T00:10:16.991Z,15.57
2023-01-17T00:13:01.092Z,15.80
2023-01-17T00:15:30.726Z,16.80
2023-01-17T00:17:58.231Z,14.90
2023-01-17T00:20:46.255Z,16.08
2023-01-17T00:23:38.046Z,14.82
2023-01-17T00:26:19.091Z,15.57
2023-01-17T00:28:47.789Z,16.12
2023-01-17T00:31:16.211Z,15.32
2023-01-17T00:33:43.345Z,16.90
2023-01-17T00:36:11.271Z,14.70
2023-01-17T00:38:39.439Z,14.68
2023-01-17T00:41:09.193Z,16.67
2023-01-17T00:43:55.051Z,14.35
2023-01-17T00:46:41.021Z,16.77
2023-01-17T00:49:27.789Z,15.15
2023-01-17T00:52:13.703Z,15.02
2023-01-17T00:54:59.606Z,14.32
2023-01-17T00:57:45.263Z,14.63
2023-01-17T01:00:31.759Z,14.43
2023-01-17T01:03:17.289Z,13.93
2023-01-17T01:06:03.339Z,14.82
2023-01-17T01:08:49.274Z,13.62
2023-01-17T01:11:38.061Z,14.50
2023-01-17T01:14:26.005Z,14.60
2023-01-17T01:17:11.779Z,14.87
2023-01-17T01:19:57.271Z,13.75
2023-01-17T01:22:43.073Z,12.88
2023-01-17T01:25:28.720Z,13.85
2023-01-17T01:28:29.326Z,14.35
2023-01-17T01:31:15.026Z,13.30
2023-01-17T01:33:42.458Z,13.25
2023-01-17T01:36:09.995Z,12.50
2023-01-17T01:38:37.124Z,13.57
2023-01-17T01:41:05.221Z,14.43
2023-01-17T01:43:48.531Z,13.23
2023-01-17T01:46:23.751Z,13.77
2023-01-17T01:49:05.900Z,12.68
2023-01-17T01:51:36.728Z,12.40
2023-01-17T01:54:25.645Z,13.90
2023-01-17T01:56:53.412Z,12.13
2023-01-17T01:59:21.249Z,13.30
2023-01-17T02:01:50.616Z,14.77
2023-01-17T02:04:19.305Z,13.50
2023-01-17T02:06:49.368Z,13.50
2023-01-17T02:09:18.120Z,13.18
2023-01-17T02:11:47.144Z,14.75
2023-01-17T02:14:22.226Z,12.95
2023-01-17T02:17:06.593Z,12.77
2023-01-17T02:19:52.213Z,13.82
2023-01-17T02:22:44.414Z,14.82
2023-01-17T02:25:43.627Z,15.65
2023-01-17T02:28:29.525Z,15.10
2023-01-17T02:31:02.905Z,14.73
2023-01-17T02:33:41.811Z,13.70
2023-01-17T02:36:17.963Z,15.70
2023-01-17T02:38:59.733Z,13.70
2023-01-17T02:41:34.289Z,14.52
2023-01-17T02:44:02.458Z,14.27
2023-01-17T02:46:29.609Z,14.00
2023-01-17T02:48:57.854Z,13.07
2023-01-17T02:51:58.635Z,13.00
2023-01-17T02:54:39.599Z,12.95
2023-01-17T02:57:06.907Z,13.30
2023-01-17T02:59:50.524Z,12.25
2023-01-17T03:02:23.855Z,13.00
2023-01-17T03:05:14.503Z,12.77
2023-01-17T03:07:44.335Z,12.77
2023-01-17T03:10:12.861Z,12.75
2023-01-17T03:12:40.644Z,12.27
2023-01-17T03:15:12.995Z,12.20
2023-01-17T03:17:46.972Z,12.98
2023-01-17T03:20:14.474Z,12.20
2023-01-17T03:22:41.625Z,13.18
2023-01-17T03:25:09.154Z,11.02
2023-01-17T03:27:36.560Z,12.55
2023-01-17T03:30:04.619Z,10.80
2023-01-17T03:32:31.675Z,10.45
2023-01-17T03:34:59.046Z,9.38
2023-01-17T03:37:26.116Z,8.75
2023-01-17T03:39:53.322Z,8.15
2023-01-17T03:42:20.664Z,9.15
2023-01-17T03:44:47.837Z,8.02
2023-01-17T03:47:14.932Z,7.30
2023-01-17T03:49:42.288Z,7.22
2023-01-17T03:52:09.406Z,6.47
2023-01-17T03:54:36.559Z,6.25
2023-01-17T03:57:04.052Z,6.00
2023-01-17T03:59:33.266Z,5.90
2023-01-17T04:02:01.188Z,6.68
2023-01-17T04:04:28.746Z,6.50
2023-01-17T04:06:55.891Z,6.97
2023-01-17T04:09:23.008Z,6.93
2023-01-17T04:11:51.018Z,6.30
2023-01-17T04:14:18.166Z,6.10
2023-01-17T04:16:45.311Z,5.80
2023-01-17T04:19:13.305Z,6.53
2023-01-17T04:21:40.415Z,6.53
2023-01-17T04:24:07.782Z,6.82
2023-01-17T04:26:35.215Z,5.82
2023-01-17T04:29:02.413Z,6.97
2023-01-17T04:31:29.576Z,6.50
2023-01-17T04:33:57.090Z,6.50
2023-01-17T04:36:24.241Z,6.82
2023-01-17T04:38:51.415Z,7.80
2023-01-17T04:41:18.897Z,8.65
2023-01-17T04:43:46.008Z,9.35
2023-01-17T04:46:13.283Z,8.38
2023-01-17T04:48:40.667Z,5.90
2023-01-17T04:51:07.755Z,5.40
2023-01-17T04:53:34.911Z,5.82
2023-01-17T04:56:03.061Z,4.40
2023-01-17T04:58:30.521Z,3.35
2023-01-17T05:01:02.308Z,3.80
2023-01-17T05:03:29.871Z,3.45
2023-01-17T05:05:56.945Z,3.50
2023-01-17T05:08:24.105Z,4.40
2023-01-17T05:10:51.638Z,3.97
2023-01-17T05:13:19.026Z,3.50
2023-01-17T05:15:46.554Z,4.22
2023-01-17T05:18:15.402Z,4.37
2023-01-17T05:20:42.878Z,3.20
2023-01-17T05:23:10.680Z,3.15
2023-01-17T05:25:38.166Z,3.12
2023-01-17T05:28:05.582Z,3.20
2023-01-17T05:30:33.204Z,3.30
2023-01-17T05:33:00.689Z,9.10
2023-01-17T05:35:30.073Z,3.78
2023-01-17T05:37:57.225Z,2.95
2023-01-17T05:40:30.771Z,3.00
2023-01-17T05:42:59.650Z,2.50
2023-01-17T05:45:28.943Z,3.90
2023-01-17T05:47:56.862Z,2.78
2023-01-17T05:50:26.500Z,2.40
2023-01-17T05:53:03.847Z,2.75
2023-01-17T05:55:31.712Z,3.08
2023-01-17T05:57:59.684Z,2.70
2023-01-17T06:00:27.096Z,2.40
2023-01-17T06:02:55.894Z,2.33
2023-01-17T06:05:23.875Z,2.65
2023-01-17T06:07:51.077Z,1.58
2023-01-17T06:10:20.031Z,2.33
2023-01-17T06:12:47.634Z,2.70
2023-01-17T06:15:16.022Z,2.03
2023-01-17T06:17:43.431Z,2.70
2023-01-17T06:20:11.749Z,2.70
2023-01-17T06:22:38.883Z,3.70
2023-01-17T06:25:07.014Z,3.87
2023-01-17T06:27:34.219Z,2.85
2023-01-17T06:30:01.315Z,4.35
2023-01-17T06:32:28.907Z,3.22
2023-01-17T06:34:56.068Z,4.47
2023-01-17T06:37:23.166Z,3.85
2023-01-17T06:39:50.539Z,4.28
2023-01-17T06:42:17.609Z,3.30
2023-01-17T06:44:44.682Z,3.25
2023-01-17T06:47:12.045Z,4.62
2023-01-17T06:49:39.107Z,4.05
2023-01-17T06:52:06.199Z,2.78
2023-01-17T06:54:33.545Z,3.85
2023-01-17T06:57:00.764Z,3.17
2023-01-17T06:59:27.962Z,3.92
2023-01-17T07:01:55.339Z,4.68
2023-01-17T07:04:22.499Z,2.83
2023-01-17T07:06:49.650Z,3.83
2023-01-17T07:09:17.232Z,3.40
2023-01-17T07:11:45.406Z,3.83
2023-01-17T07:14:13.744Z,3.33
2023-01-17T07:16:45.312Z,2.90
2023-01-17T07:19:12.807Z,3.42
2023-01-17T07:21:40.430Z,2.95
2023-01-17T07:24:09.094Z,2.53
2023-01-17T07:26:38.013Z,2.70
2023-01-17T07:29:05.379Z,3.12
2023-01-17T07:31:38.149Z,2.67
2023-01-17T07:34:05.361Z,2.22
2023-01-17T07:36:33.403Z,2.62
2023-01-17T07:39:00.492Z,2.37
2023-01-17T07:41:27.584Z,3.65
2023-01-17T07:43:56.399Z,2.70
2023-01-17T07:46:23.723Z,2.67
2023-01-17T07:48:50.920Z,2.37
2023-01-17T07:51:18.353Z,2.20
2023-01-17T07:53:45.564Z,1.80
2023-01-17T07:56:12.704Z,2.35
2023-01-17T07:58:40.147Z,1.10
2023-01-17T08:01:10.088Z,1.20
2023-01-17T08:03:40.184Z,1.27
2023-01-17T08:06:16.455Z,1.48
2023-01-17T08:08:43.981Z,1.00
2023-01-17T08:11:11.145Z,1.05
2023-01-17T08:13:38.326Z,1.77
2023-01-17T08:16:06.352Z,1.10
2023-01-17T08:18:33.448Z,3.20
2023-01-17T08:21:00.600Z,5.90
2023-01-17T08:23:28.035Z,1.58
2023-01-17T08:26:00.018Z,2.65
2023-01-17T08:28:27.510Z,1.40
2023-01-17T08:30:54.644Z,2.28
2023-01-17T08:33:21.784Z,1.00
2023-01-17T08:35:55.504Z,1.30
2023-01-17T08:38:23.798Z,0.70
2023-01-17T08:40:51.165Z,0.60
2023-01-17T08:43:18.292Z,0.70
2023-01-17T08:45:47.075Z,0.65
2023-01-17T08:48:15.427Z,0.80
2023-01-17T08:50:42.571Z,2.42
2023-01-17T08:53:09.721Z,0.90
2023-01-17T08:55:40.905Z,0.40
2023-01-17T08:58:08.335Z,0.65
2023-01-17T09:00:35.996Z,0.73
2023-01-17T09:03:03.570Z,0.90
2023-01-17T09:05:30.754Z,0.95
2023-01-17T09:07:57.921Z,0.57
2023-01-17T09:10:25.458Z,0.60
2023-01-17T09:12:52.827Z,1.98
2023-01-17T09:15:20.287Z,0.80
2023-01-17T09:17:48.046Z,2.20
2023-01-17T09:20:15.251Z,2.85
2023-01-17T09:22:42.370Z,1.60
2023-01-17T09:25:09.985Z,0.68
2023-01-17T09:27:37.272Z,0.80
2023-01-17T09:30:04.948Z,0.40
2023-01-17T09:32:32.402Z,1.45
2023-01-17T09:35:01.013Z,0.80
2023-01-17T09:37:28.397Z,0.52
2023-01-17T09:39:55.903Z,0.57
2023-01-17T09:42:41.133Z,0.50
2023-01-17T09:45:16.867Z,0.82
2023-01-17T09:47:46.488Z,1.00
2023-01-17T09:50:36.010Z,0.82
2023-01-17T09:53:05.443Z,1.10
2023-01-17T09:55:42.965Z,1.30
2023-01-17T09:58:13.086Z,0.30
2023-01-17T10:01:19.845Z,2.17
2023-01-17T10:03:59.306Z,1.87
2023-01-17T10:06:42.468Z,2.67
2023-01-17T10:09:34.044Z,3.03
2023-01-17T10:12:07.214Z,0.60
2023-01-17T10:14:52.572Z,0.53
2023-01-17T10:17:36.419Z,0.50
2023-01-17T10:20:26.593Z,0.80
2023-01-17T10:23:13.003Z,0.50
2023-01-17T10:25:49.682Z,0.60
2023-01-17T10:28:18.049Z,0.68
2023-01-17T10:30:50.742Z,0.50
2023-01-17T10:33:22.460Z,0.50
2023-01-17T10:35:59.093Z,0.70
2023-01-17T10:38:35.082Z,0.50
2023-01-17T10:41:08.112Z,0.55
2023-01-17T10:43:44.505Z,0.70
2023-01-17T10:46:19.345Z,0.90
2023-01-17T10:48:47.822Z,0.60
2023-01-17T10:51:32.532Z,0.70
2023-01-17T10:54:28.332Z,0.40
2023-01-17T10:56:55.847Z,0.40
2023-01-17T10:59:31.953Z,0.70
2023-01-17T11:02:00.482Z,0.68
2023-01-17T11:04:38.839Z,0.40
2023-01-17T11:07:19.495Z,0.50
2023-01-17T11:09:57.570Z,0.62
2023-01-17T11:12:30.967Z,0.80
2023-01-17T11:15:05.797Z,1.65
2023-01-17T11:17:35.048Z,0.50
2023-01-17T11:20:40.733Z,1.20
2023-01-17T11:23:14.075Z,3.28
2023-01-17T11:25:49.410Z,0.40
2023-01-17T11:28:22.956Z,0.90
2023-01-17T11:31:16.618Z,0.80
2023-01-17T11:33:55.854Z,0.60
2023-01-17T11:36:24.675Z,0.50
2023-01-17T11:38:56.778Z,0.70
2023-01-17T11:41:25.026Z,1.20
2023-01-17T11:43:57.401Z,1.85
2023-01-17T11:46:25.258Z,1.05
2023-01-17T11:48:56.449Z,3.05
2023-01-17T11:51:29.568Z,7.15
2023-01-17T11:54:08.778Z,3.05
2023-01-17T11:56:36.916Z,4.12
2023-01-17T11:59:31.630Z,4.70
2023-01-17T12:02:15.685Z,3.42
2023-01-17T12:04:47.653Z,1.45
2023-01-17T12:07:33.328Z,1.95
2023-01-17T12:10:11.209Z,2.90
2023-01-17T12:13:09.998Z,2.40
2023-01-17T12:16:01.820Z,1.75
2023-01-17T12:19:04.120Z,3.20
2023-01-17T12:21:50.039Z,1.17
2023-01-17T12:24:45.513Z,2.65
2023-01-17T12:27:31.637Z,1.77
2023-01-17T12:30:24.974Z,2.15
2023-01-17T12:33:30.557Z,1.33
2023-01-17T12:36:38.179Z,2.50
2023-01-17T12:39:10.135Z,3.20
2023-01-17T12:42:01.627Z,2.50
2023-01-17T12:45:32.289Z,2.80
2023-01-17T12:48:12.323Z,2.72
2023-01-17T12:51:08.989Z,2.10
2023-01-17T12:53:48.560Z,1.62
2023-01-17T12:56:22.641Z,1.40
2023-01-17T12:58:56.277Z,1.62
2023-01-17T13:01:31.835Z,1.23
2023-01-17T13:04:28.776Z,2.12
2023-01-17T13:06:59.163Z,2.80
2023-01-17T13:09:33.215Z,3.60
2023-01-17T13:12:06.225Z,4.03
2023-01-17T13:14:33.435Z,4.45
2023-01-17T13:17:02.113Z,4.45
2023-01-17T13:19:38.091Z,5.18
2023-01-17T13:22:08.392Z,6.70
2023-01-17T13:25:12.886Z,6.62
2023-01-17T13:28:01.771Z,3.30
2023-01-17T13:30:50.875Z,2.35
2023-01-17T13:33:39.729Z,2.47
2023-01-17T13:36:30.016Z,1.65
2023-01-17T13:39:16.053Z,2.03
2023-01-17T13:41:47.702Z,2.20
2023-01-17T13:44:21.587Z,2.28
2023-01-17T13:46:56.715Z,3.33
2023-01-17T13:49:36.185Z,2.60
2023-01-17T13:52:09.577Z,2.80
2023-01-17T13:54:49.049Z,3.67
2023-01-17T13:57:25.735Z,3.87
2023-01-17T13:59:58.108Z,5.37
2023-01-17T14:02:38.528Z,2.90
2023-01-17T14:05:15.972Z,2.17
2023-01-17T14:07:49.260Z,3.03
2023-01-17T14:10:24.395Z,3.55
2023-01-17T14:12:51.549Z,3.80
2023-01-17T14:15:21.049Z,2.97
2023-01-17T14:17:58.480Z,2.60
2023-01-17T14:20:25.895Z,14.93
2023-01-17T14:22:56.158Z,3.22
2023-01-17T14:25:28.334Z,3.35
2023-01-17T14:27:59.493Z,4.95
2023-01-17T14:30:27.055Z,6.72
2023-01-17T14:33:04.688Z,5.85
2023-01-17T14:35:35.137Z,5.90
2023-01-17T14:38:05.379Z,3.78
2023-01-17T14:40:35.826Z,3.45
2023-01-17T14:43:02.931Z,3.12
2023-01-17T14:45:32.361Z,3.62
2023-01-17T14:48:01.994Z,3.78
2023-01-17T14:50:37.333Z,4.55
2023-01-17T14:53:08.383Z,4.47
2023-01-17T14:55:35.725Z,6.03
2023-01-17T14:58:03.304Z,6.37
2023-01-17T15:00:32.918Z,8.45
2023-01-17T15:03:01.439Z,9.27
2023-01-17T15:05:29.737Z,8.05
2023-01-17T15:07:58.336Z,7.70
2023-01-17T15:10:28.560Z,6.68
2023-01-17T15:12:56.824Z,7.10
2023-01-17T15:15:39.697Z,5.45
2023-01-17T15:18:27.140Z,6.32
2023-01-17T15:21:03.124Z,6.62
2023-01-17T15:23:37.541Z,6.12
2023-01-17T15:26:07.550Z,5.20
2023-01-17T15:28:35.314Z,6.30
2023-01-17T15:31:15.829Z,5.40
2023-01-17T15:33:46.850Z,5.30
2023-01-17T15:36:34.219Z,5.15
2023-01-17T15:39:06.036Z,6.68
2023-01-17T15:41:37.918Z,5.70
2023-01-17T15:44:05.691Z,6.00
2023-01-17T15:46:42.053Z,5.45
2023-01-17T15:49:21.369Z,5.32
2023-01-17T15:51:52.550Z,5.00
2023-01-17T15:54:28.679Z,4.12
2023-01-17T15:57:37.330Z,5.22
2023-01-17T16:00:20.467Z,5.93
2023-01-17T16:02:55.094Z,5.70
2023-01-17T16:05:22.912Z,5.18
2023-01-17T16:07:55.630Z,5.10
2023-01-17T16:10:25.136Z,6.05
2023-01-17T16:12:55.093Z,6.65
2023-01-17T16:15:23.621Z,5.55
2023-01-17T16:17:53.213Z,6.18
2023-01-17T16:20:35.906Z,5.65
2023-01-17T16:23:03.328Z,8.15
2023-01-17T16:25:32.751Z,5.72
2023-01-17T16:27:59.998Z,6.68
2023-01-17T16:30:28.008Z,5.50
2023-01-17T16:32:56.904Z,5.78
2023-01-17T16:35:34.329Z,31.40
2023-01-17T16:38:07.267Z,5.40
2023-01-17T16:40:43.901Z,5.15
2023-01-17T16:43:18.427Z,4.75
2023-01-17T16:45:47.926Z,5.18
2023-01-17T16:48:17.669Z,6.28
2023-01-17T16:50:50.488Z,5.57
2023-01-17T16:53:24.287Z,4.43
2023-01-17T16:55:57.191Z,4.57
2023-01-17T16:58:24.772Z,5.53
2023-01-17T17:00:52.322Z,5.45
2023-01-17T17:03:20.851Z,5.20
2023-01-17T17:05:59.986Z,6.05
2023-01-17T17:08:29.296Z,5.43
2023-01-17T17:11:07.982Z,5.00
2023-01-17T17:13:37.810Z,4.45
2023-01-17T17:16:19.127Z,4.35
2023-01-17T17:18:47.661Z,5.05
2023-01-17T17:21:15.161Z,4.25
2023-01-17T17:23:42.389Z,4.40
2023-01-17T17:26:09.825Z,4.00
2023-01-17T17:28:37.576Z,3.97
2023-01-17T17:31:11.010Z,4.60
2023-01-17T17:33:38.770Z,4.20
2023-01-17T17:36:07.717Z,4.37
2023-01-17T17:38:37.053Z,4.62
2023-01-17T17:41:09.740Z,4.47
2023-01-17T17:43:38.631Z,4.40
2023-01-17T17:46:06.504Z,4.55
2023-01-17T17:48:33.876Z,3.78
2023-01-17T17:51:01.586Z,5.07
2023-01-17T17:53:29.060Z,4.40
2023-01-17T17:55:56.348Z,5.20
2023-01-17T17:58:23.633Z,4.30
2023-01-17T18:00:51.141Z,4.15
2023-01-17T18:03:18.946Z,4.90
2023-01-17T18:05:46.840Z,5.15
2023-01-17T18:08:14.087Z,4.78
2023-01-17T18:10:42.531Z,4.75
2023-01-17T18:13:09.692Z,4.65
2023-01-17T18:15:36.830Z,4.85
2023-01-17T18:18:04.445Z,4.85
2023-01-17T18:20:31.947Z,4.00
2023-01-17T18:22:59.124Z,3.60
2023-01-17T18:25:26.555Z,3.42
2023-01-17T18:27:53.869Z,3.42
2023-01-17T18:30:21.269Z,3.45
2023-01-17T18:32:49.888Z,3.90
2023-01-17T18:35:17.212Z,3.75
2023-01-17T18:37:44.518Z,2.92
2023-01-17T18:40:12.152Z,3.70
2023-01-17T18:42:39.278Z,3.70
2023-01-17T18:45:06.896Z,3.78
2023-01-17T18:47:34.348Z,2.60
2023-01-17T18:50:01.573Z,2.67
2023-01-17T18:52:28.699Z,2.90
2023-01-17T18:54:56.124Z,2.92
2023-01-17T18:57:24.136Z,3.03
2023-01-17T18:59:51.226Z,2.85
2023-01-17T19:02:19.927Z,3.87
2023-01-17T19:04:47.099Z,3.83
2023-01-17T19:07:14.234Z,3.22
2023-01-17T19:09:41.764Z,3.20
2023-01-17T19:12:08.860Z,2.97
2023-01-17T19:14:35.930Z,3.30
2023-01-17T19:17:03.341Z,3.53
2023-01-17T19:19:30.438Z,3.45
2023-01-17T19:21:57.495Z,3.58
2023-01-17T19:24:24.843Z,3.03
2023-01-17T19:26:53.272Z,3.00
2023-01-17T19:29:20.512Z,2.70
2023-01-17T19:31:47.911Z,2.67
2023-01-17T19:34:15.973Z,3.55
2023-01-17T19:36:43.105Z,3.00
2023-01-17T19:39:10.676Z,3.80
2023-01-17T19:41:42.170Z,3.10
2023-01-17T19:44:10.273Z,3.20
2023-01-17T19:46:37.949Z,3.15
2023-01-17T19:49:07.110Z,3.12
2023-01-17T19:51:34.572Z,3.35
2023-01-17T19:54:04.044Z,3.78
2023-01-17T19:56:31.504Z,3.35
2023-01-17T19:59:01.347Z,3.20
2023-01-17T20:01:31.548Z,3.20
2023-01-17T20:03:59.721Z,2.70
2023-01-17T20:06:29.499Z,2.72
2023-01-17T20:08:56.656Z,2.40
2023-01-17T20:11:25.557Z,2.30
2023-01-17T20:13:54.819Z,2.35
2023-01-17T20:16:23.213Z,1.90
2023-01-17T20:18:51.126Z,2.65
2023-01-17T20:21:20.667Z,2.53
2023-01-17T20:23:48.976Z,2.28
2023-01-17T20:26:19.430Z,2.35
2023-01-17T20:28:47.733Z,1.83
2023-01-17T20:31:17.527Z,1.90
2023-01-17T20:33:46.899Z,1.45
2023-01-17T20:36:16.636Z,1.75
2023-01-17T20:38:44.437Z,1.27
2023-01-17T20:41:17.671Z,1.20
2023-01-17T20:43:46.684Z,1.80
2023-01-17T20:46:14.703Z,1.25
2023-01-17T20:48:46.553Z,1.00
2023-01-17T20:51:14.659Z,1.25
2023-01-17T20:53:43.508Z,1.12
2023-01-17T20:56:12.372Z,1.10
2023-01-17T20:58:40.355Z,1.20
2023-01-17T21:01:09.550Z,1.00
2023-01-17T21:03:37.630Z,1.37
2023-01-17T21:06:07.168Z,1.55
2023-01-17T21:08:36.647Z,1.30
2023-01-17T21:11:04.613Z,1.80
2023-01-17T21:13:32.055Z,0.80
2023-01-17T21:15:59.619Z,1.42
2023-01-17T21:18:28.190Z,0.90
2023-01-17T21:20:55.551Z,1.30
2023-01-17T21:23:29.033Z,0.90
2023-01-17T21:25:57.639Z,0.95
2023-01-17T21:28:26.463Z,0.80
2023-01-17T21:30:54.107Z,0.88
2023-01-17T21:33:22.724Z,0.60
2023-01-17T21:35:50.199Z,0.60
2023-01-17T21:38:17.598Z,1.20
2023-01-17T21:40:45.434Z,0.90
2023-01-17T21:43:13.006Z,1.10
2023-01-17T21:45:41.501Z,0.98
2023-01-17T21:48:13.568Z,1.20
2023-01-17T21:50:40.675Z,0.88
2023-01-17T21:53:09.990Z,0.80
2023-01-17T21:55:56.249Z,1.45
2023-01-17T21:58:42.116Z,0.88
2023-01-17T22:01:22.391Z,1.17
2023-01-17T22:03:54.912Z,1.08
2023-01-17T22:06:25.779Z,1.05
2023-01-17T22:08:53.359Z,1.20
2023-01-17T22:11:22.635Z,1.17
2023-01-17T22:13:49.775Z,1.35
2023-01-17T22:16:21.395Z,1.40
2023-01-17T22:18:48.469Z,1.30
2023-01-17T22:21:23.640Z,1.20
2023-01-17T22:23:52.970Z,1.25
2023-01-17T22:26:21.878Z,1.17
2023-01-17T22:28:48.957Z,1.60
2023-01-17T22:31:20.819Z,1.58
2023-01-17T22:33:55.337Z,1.60
2023-01-17T22:36:23.305Z,1.30
2023-01-17T22:38:50.655Z,1.70
2023-01-17T22:41:23.269Z,1.75
2023-01-17T22:43:55.595Z,1.55
2023-01-17T22:46:26.614Z,1.30
2023-01-17T22:48:55.194Z,1.80
2023-01-17T22:51:24.003Z,1.40
2023-01-17T22:53:53.238Z,1.90
2023-01-17T22:56:31.272Z,1.85
2023-01-17T22:59:00.732Z,1.50
2023-01-17T23:01:30.209Z,1.45
2023-01-17T23:03:59.547Z,1.80
2023-01-17T23:06:30.425Z,1.37
2023-01-17T23:09:03.571Z,1.70
2023-01-17T23:11:39.680Z,2.60
2023-01-17T23:14:07.191Z,2.67
2023-01-17T23:16:52.980Z,2.25
2023-01-17T23:19:23.652Z,2.20
2023-01-17T23:22:17.349Z,2.35
2023-01-17T23:24:56.806Z,2.80
2023-01-17T23:27:42.081Z,4.12
2023-01-17T23:30:13.966Z,3.35
2023-01-17T23:32:45.871Z,2.80
2023-01-17T23:35:14.269Z,3.33
2023-01-17T23:38:00.057Z,2.97
2023-01-17T23:40:28.122Z,2.78
2023-01-17T23:43:13.650Z,3.17
2023-01-17T23:45:41.102Z,3.42
2023-01-17T23:48:12.043Z,3.17
2023-01-17T23:50:41.578Z,3.17
2023-01-17T23:53:09.617Z,3.30
2023-01-17T23:55:39.914Z,4.05
2023-01-17T23:58:10.434Z,3.08
